sensor_id;sensor_type;location;lat;lon;timestamp;pressure;altitude;pressure_sealevel;temperature;humidity
22830;BME280;11581;51.250;6.778;2023-05-08T00:02:14;101545.25;;;19.51;66.98
22830;BME280;11581;51.250;6.778;2023-05-08T00:04:41;101546.28;;;19.50;67.39
22830;BME280;11581;51.250;6.778;2023-05-08T00:07:08;101544.81;;;19.47;67.19
22830;BME280;11581;51.250;6.778;2023-05-08T00:09:35;101483.75;;;19.01;67.38
22830;BME280;11581;51.250;6.778;2023-05-08T00:12:01;101542.84;;;19.41;67.62
22830;BME280;11581;51.250;6.778;2023-05-08T00:14:28;101544.25;;;19.37;67.63
22830;BME280;11581;51.250;6.778;2023-05-08T00:16:54;101529.56;;;19.17;67.64
22830;BME280;11581;51.250;6.778;2023-05-08T00:19:21;101540.59;;;19.30;67.91
22830;BME280;11581;51.250;6.778;2023-05-08T00:21:47;101537.41;;;19.27;67.71
22830;BME280;11581;51.250;6.778;2023-05-08T00:24:13;101542.97;;;19.25;67.87
22830;BME280;11581;51.250;6.778;2023-05-08T00:26:40;101533.06;;;19.18;67.82
22830;BME280;11581;51.250;6.778;2023-05-08T00:29:08;101542.22;;;19.17;67.71
22830;BME280;11581;51.250;6.778;2023-05-08T00:31:36;101553.53;;;19.20;67.91
22830;BME280;11581;51.250;6.778;2023-05-08T00:34:03;101541.19;;;19.18;67.84
22830;BME280;11581;51.250;6.778;2023-05-08T00:36:29;101506.47;;;18.92;67.91
22830;BME280;11581;51.250;6.778;2023-05-08T00:38:56;101556.97;;;19.14;67.95
22830;BME280;11581;51.250;6.778;2023-05-08T00:41:22;101548.38;;;19.11;67.88
22830;BME280;11581;51.250;6.778;2023-05-08T00:43:49;101532.59;;;19.00;67.94
22830;BME280;11581;51.250;6.778;2023-05-08T00:46:16;101509.59;;;18.81;68.11
22830;BME280;11581;51.250;6.778;2023-05-08T00:48:43;101489.47;;;18.69;68.36
22830;BME280;11581;51.250;6.778;2023-05-08T00:51:10;101552.34;;;19.00;68.58
22830;BME280;11581;51.250;6.778;2023-05-08T00:53:39;101548.16;;;18.98;69.07
22830;BME280;11581;51.250;6.778;2023-05-08T00:56:10;101540.13;;;18.90;69.50
22830;BME280;11581;51.250;6.778;2023-05-08T00:58:38;101512.09;;;18.68;68.60
22830;BME280;11581;51.250;6.778;2023-05-08T01:01:05;101515.63;;;18.69;68.45
22830;BME280;11581;51.250;6.778;2023-05-08T01:03:34;101513.28;;;18.66;69.04
22830;BME280;11581;51.250;6.778;2023-05-08T01:06:03;101551.13;;;18.88;68.84
22830;BME280;11581;51.250;6.778;2023-05-08T01:08:30;101459.22;;;18.29;68.95
22830;BME280;11581;51.250;6.778;2023-05-08T01:11:08;101556.41;;;18.82;70.35
22830;BME280;11581;51.250;6.778;2023-05-08T01:13:48;101485.47;;;18.35;70.52
22830;BME280;11581;51.250;6.778;2023-05-08T01:16:22;101550.69;;;18.77;69.70
22830;BME280;11581;51.250;6.778;2023-05-08T01:19:17;101553.59;;;18.75;70.36
22830;BME280;11581;51.250;6.778;2023-05-08T01:22:04;101531.13;;;18.52;70.28
22830;BME280;11581;51.250;6.778;2023-05-08T01:24:45;101560.34;;;18.71;69.01
22830;BME280;11581;51.250;6.778;2023-05-08T01:27:52;101562.59;;;18.68;70.74
22830;BME280;11581;51.250;6.778;2023-05-08T01:30:44;101558.38;;;18.65;71.16
22830;BME280;11581;51.250;6.778;2023-05-08T01:33:19;101565.00;;;18.63;70.36
22830;BME280;11581;51.250;6.778;2023-05-08T01:35:52;101529.22;;;18.38;69.43
22830;BME280;11581;51.250;6.778;2023-05-08T01:38:38;101568.91;;;18.60;70.88
22830;BME280;11581;51.250;6.778;2023-05-08T01:41:10;101552.56;;;18.54;70.40
22830;BME280;11581;51.250;6.778;2023-05-08T01:43:49;101534.66;;;18.30;70.71
22830;BME280;11581;51.250;6.778;2023-05-08T01:46:21;101489.56;;;18.08;69.99
22830;BME280;11581;51.250;6.778;2023-05-08T01:49:26;101551.66;;;18.39;71.05
22830;BME280;11581;51.250;6.778;2023-05-08T01:52:02;101500.81;;;18.12;70.69
22830;BME280;11581;51.250;6.778;2023-05-08T01:54:54;101577.19;;;18.59;70.50
22830;BME280;11581;51.250;6.778;2023-05-08T01:57:25;101532.41;;;18.34;70.08
22830;BME280;11581;51.250;6.778;2023-05-08T01:59:55;101580.06;;;18.57;69.55
22830;BME280;11581;51.250;6.778;2023-05-08T02:02:23;101583.44;;;18.59;69.34
22830;BME280;11581;51.250;6.778;2023-05-08T02:04:52;101558.19;;;18.44;69.66
22830;BME280;11581;51.250;6.778;2023-05-08T02:07:22;101570.66;;;18.53;70.26
22830;BME280;11581;51.250;6.778;2023-05-08T02:09:50;101580.72;;;18.59;69.65
22830;BME280;11581;51.250;6.778;2023-05-08T02:12:17;101587.13;;;18.58;69.38
22830;BME280;11581;51.250;6.778;2023-05-08T02:14:46;101566.66;;;18.33;69.51
22830;BME280;11581;51.250;6.778;2023-05-08T02:17:15;101574.88;;;18.48;69.63
22830;BME280;11581;51.250;6.778;2023-05-08T02:19:43;101553.69;;;18.37;69.19
22830;BME280;11581;51.250;6.778;2023-05-08T02:22:12;101589.03;;;18.58;69.60
22830;BME280;11581;51.250;6.778;2023-05-08T02:24:40;101596.28;;;18.57;69.25
22830;BME280;11581;51.250;6.778;2023-05-08T02:27:08;101600.63;;;18.58;69.15
22830;BME280;11581;51.250;6.778;2023-05-08T02:29:36;101549.50;;;18.26;68.72
22830;BME280;11581;51.250;6.778;2023-05-08T02:32:04;101603.34;;;18.58;68.94
22830;BME280;11581;51.250;6.778;2023-05-08T02:34:34;101604.38;;;18.57;68.73
22830;BME280;11581;51.250;6.778;2023-05-08T02:37:02;101603.53;;;18.57;68.73
22830;BME280;11581;51.250;6.778;2023-05-08T02:39:33;101525.66;;;18.07;69.01
22830;BME280;11581;51.250;6.778;2023-05-08T02:42:01;101563.63;;;18.36;68.63
22830;BME280;11581;51.250;6.778;2023-05-08T02:44:28;101613.16;;;18.59;68.38
22830;BME280;11581;51.250;6.778;2023-05-08T02:47:06;101603.16;;;18.60;69.00
22830;BME280;11581;51.250;6.778;2023-05-08T02:49:54;101568.03;;;18.29;69.25
22830;BME280;11581;51.250;6.778;2023-05-08T02:52:32;101612.75;;;18.62;68.98
22830;BME280;11581;51.250;6.778;2023-05-08T02:55:28;101596.56;;;18.62;68.96
22830;BME280;11581;51.250;6.778;2023-05-08T02:58:16;101589.31;;;18.63;68.67
22830;BME280;11581;51.250;6.778;2023-05-08T03:00:48;101558.88;;;18.46;67.84
22830;BME280;11581;51.250;6.778;2023-05-08T03:03:27;101585.75;;;18.62;68.32
22830;BME280;11581;51.250;6.778;2023-05-08T03:05:59;101580.25;;;18.56;67.76
22830;BME280;11581;51.250;6.778;2023-05-08T03:08:33;101544.75;;;18.36;67.94
22830;BME280;11581;51.250;6.778;2023-05-08T03:11:04;101512.47;;;18.12;67.32
22830;BME280;11581;51.250;6.778;2023-05-08T03:13:34;101588.53;;;18.54;67.31
22830;BME280;11581;51.250;6.778;2023-05-08T03:16:05;101490.47;;;17.93;67.13
22830;BME280;11581;51.250;6.778;2023-05-08T03:18:42;101584.84;;;18.47;68.09
22830;BME280;11581;51.250;6.778;2023-05-08T03:21:12;101594.16;;;18.45;67.46
22830;BME280;11581;51.250;6.778;2023-05-08T03:23:41;101586.59;;;18.40;67.23
22830;BME280;11581;51.250;6.778;2023-05-08T03:26:09;101585.25;;;18.36;67.49
22830;BME280;11581;51.250;6.778;2023-05-08T03:28:36;101518.31;;;17.93;67.54
22830;BME280;11581;51.250;6.778;2023-05-08T03:31:05;101570.97;;;18.20;67.62
22830;BME280;11581;51.250;6.778;2023-05-08T03:33:32;101540.59;;;17.95;67.70
22830;BME280;11581;51.250;6.778;2023-05-08T03:35:59;101473.69;;;17.44;67.83
22830;BME280;11581;51.250;6.778;2023-05-08T03:38:26;101579.28;;;18.10;68.22
22830;BME280;11581;51.250;6.778;2023-05-08T03:40:53;101579.09;;;18.12;68.28
22830;BME280;11581;51.250;6.778;2023-05-08T03:43:20;101582.16;;;18.09;68.37
22830;BME280;11581;51.250;6.778;2023-05-08T03:45:47;101580.84;;;18.05;68.37
22830;BME280;11581;51.250;6.778;2023-05-08T03:48:15;101512.59;;;17.57;68.62
22830;BME280;11581;51.250;6.778;2023-05-08T03:50:42;101590.47;;;17.99;68.63
22830;BME280;11581;51.250;6.778;2023-05-08T03:53:09;101588.97;;;17.97;68.75
22830;BME280;11581;51.250;6.778;2023-05-08T03:55:36;101503.34;;;17.44;69.05
22830;BME280;11581;51.250;6.778;2023-05-08T03:58:30;101584.28;;;17.91;70.42
22830;BME280;11581;51.250;6.778;2023-05-08T04:01:11;101582.56;;;17.90;70.14
22830;BME280;11581;51.250;6.778;2023-05-08T04:04:03;101591.69;;;17.89;69.17
22830;BME280;11581;51.250;6.778;2023-05-08T04:06:39;101591.06;;;17.87;70.36
22830;BME280;11581;51.250;6.778;2023-05-08T04:09:16;101553.53;;;17.61;70.30
22830;BME280;11581;51.250;6.778;2023-05-08T04:14:47;101602.03;;;17.85;70.15
22830;BME280;11581;51.250;6.778;2023-05-08T04:17:21;101597.63;;;17.84;70.54
22830;BME280;11581;51.250;6.778;2023-05-08T04:19:56;101603.19;;;17.83;70.73
22830;BME280;11581;51.250;6.778;2023-05-08T04:22:24;101601.50;;;17.82;69.59
22830;BME280;11581;51.250;6.778;2023-05-08T04:24:53;101592.59;;;17.73;70.15
22830;BME280;11581;51.250;6.778;2023-05-08T04:27:23;101608.94;;;17.79;70.07
22830;BME280;11581;51.250;6.778;2023-05-08T04:29:50;101567.00;;;17.61;70.03
22830;BME280;11581;51.250;6.778;2023-05-08T04:32:17;101605.06;;;17.82;70.11
22830;BME280;11581;51.250;6.778;2023-05-08T04:34:44;101604.88;;;17.84;70.26
22830;BME280;11581;51.250;6.778;2023-05-08T04:37:22;101602.84;;;17.86;71.34
22830;BME280;11581;51.250;6.778;2023-05-08T04:39:50;101605.38;;;17.87;70.08
22830;BME280;11581;51.250;6.778;2023-05-08T04:42:16;101607.06;;;17.88;70.08
22830;BME280;11581;51.250;6.778;2023-05-08T04:44:43;101590.22;;;17.78;70.23
22830;BME280;11581;51.250;6.778;2023-05-08T04:47:10;101535.19;;;17.48;70.43
22830;BME280;11581;51.250;6.778;2023-05-08T04:49:36;101610.91;;;17.94;70.47
22830;BME280;11581;51.250;6.778;2023-05-08T04:52:03;101579.06;;;17.81;70.48
22830;BME280;11581;51.250;6.778;2023-05-08T04:54:30;101604.84;;;18.00;70.12
22830;BME280;11581;51.250;6.778;2023-05-08T04:56:57;101618.81;;;18.03;69.99
22830;BME280;11581;51.250;6.778;2023-05-08T04:59:24;101585.47;;;17.88;70.01
22830;BME280;11581;51.250;6.778;2023-05-08T05:01:50;101619.13;;;18.08;69.83
22830;BME280;11581;51.250;6.778;2023-05-08T05:04:17;101579.06;;;17.81;69.63
22830;BME280;11581;51.250;6.778;2023-05-08T05:06:43;101626.69;;;18.13;69.60
22830;BME280;11581;51.250;6.778;2023-05-08T05:09:10;101620.09;;;18.15;69.70
22830;BME280;11581;51.250;6.778;2023-05-08T05:11:38;101630.56;;;18.18;69.52
22830;BME280;11581;51.250;6.778;2023-05-08T05:14:04;101623.97;;;18.21;69.15
22830;BME280;11581;51.250;6.778;2023-05-08T05:16:32;101465.81;;;17.26;68.95
22830;BME280;11581;51.250;6.778;2023-05-08T05:18:59;101602.94;;;18.00;68.72
22830;BME280;11581;51.250;6.778;2023-05-08T05:21:26;101636.59;;;18.28;68.72
22830;BME280;11581;51.250;6.778;2023-05-08T05:23:53;101634.56;;;18.30;68.68
22830;BME280;11581;51.250;6.778;2023-05-08T05:26:20;101632.50;;;18.32;68.63
22830;BME280;11581;51.250;6.778;2023-05-08T05:28:47;101621.59;;;18.26;68.40
22830;BME280;11581;51.250;6.778;2023-05-08T05:31:14;101624.75;;;18.37;68.13
22830;BME280;11581;51.250;6.778;2023-05-08T05:33:40;101635.22;;;18.40;68.34
22830;BME280;11581;51.250;6.778;2023-05-08T05:36:07;101641.09;;;18.44;68.29
22830;BME280;11581;51.250;6.778;2023-05-08T05:38:34;101641.59;;;18.47;68.10
22830;BME280;11581;51.250;6.778;2023-05-08T05:41:00;101632.97;;;18.44;67.75
22830;BME280;11581;51.250;6.778;2023-05-08T05:43:27;101623.38;;;18.41;67.76
22830;BME280;11581;51.250;6.778;2023-05-08T05:45:54;101620.78;;;18.48;67.75
22830;BME280;11581;51.250;6.778;2023-05-08T05:48:21;101579.91;;;18.20;67.75
22830;BME280;11581;51.250;6.778;2023-05-08T05:50:48;101652.13;;;18.65;67.68
22830;BME280;11581;51.250;6.778;2023-05-08T05:53:14;101641.59;;;18.70;67.09
22830;BME280;11581;51.250;6.778;2023-05-08T05:55:41;101625.81;;;18.59;66.83
22830;BME280;11581;51.250;6.778;2023-05-08T05:58:07;101646.13;;;18.77;66.76
22830;BME280;11581;51.250;6.778;2023-05-08T06:00:34;101535.91;;;18.12;66.68
22830;BME280;11581;51.250;6.778;2023-05-08T06:03:01;101599.25;;;18.40;66.47
22830;BME280;11581;51.250;6.778;2023-05-08T06:05:28;101659.88;;;18.90;66.44
22830;BME280;11581;51.250;6.778;2023-05-08T06:07:57;101602.75;;;18.48;66.26
22830;BME280;11581;51.250;6.778;2023-05-08T06:10:23;101644.97;;;18.94;66.27
22830;BME280;11581;51.250;6.778;2023-05-08T06:12:50;101661.81;;;19.04;66.24
22830;BME280;11581;51.250;6.778;2023-05-08T06:15:17;101622.03;;;18.90;66.04
22830;BME280;11581;51.250;6.778;2023-05-08T06:17:45;101651.22;;;19.17;66.09
22830;BME280;11581;51.250;6.778;2023-05-08T06:20:11;101644.25;;;19.23;65.74
22830;BME280;11581;51.250;6.778;2023-05-08T06:22:38;101650.38;;;19.39;65.31
22830;BME280;11581;51.250;6.778;2023-05-08T06:25:06;101654.69;;;19.48;65.01
22830;BME280;11581;51.250;6.778;2023-05-08T06:27:34;101659.00;;;19.57;64.55
22830;BME280;11581;51.250;6.778;2023-05-08T06:30:01;101635.56;;;19.50;64.45
22830;BME280;11581;51.250;6.778;2023-05-08T06:32:28;101644.06;;;19.61;64.13
22830;BME280;11581;51.250;6.778;2023-05-08T06:34:55;101649.31;;;19.77;64.17
22830;BME280;11581;51.250;6.778;2023-05-08T06:37:22;101474.41;;;18.89;63.44
22830;BME280;11581;51.250;6.778;2023-05-08T06:39:48;101497.91;;;19.03;63.60
22830;BME280;11581;51.250;6.778;2023-05-08T06:42:14;101666.59;;;20.06;63.88
22830;BME280;11581;51.250;6.778;2023-05-08T06:44:44;101662.06;;;20.21;64.50
22830;BME280;11581;51.250;6.778;2023-05-08T06:47:10;101610.59;;;20.06;64.96
22830;BME280;11581;51.250;6.778;2023-05-08T06:49:37;101624.47;;;20.47;65.23
22830;BME280;11581;51.250;6.778;2023-05-08T06:52:03;101674.63;;;21.14;65.09
22830;BME280;11581;51.250;6.778;2023-05-08T06:54:30;101630.72;;;21.25;63.28
22830;BME280;11581;51.250;6.778;2023-05-08T06:56:56;101674.66;;;21.90;61.62
22830;BME280;11581;51.250;6.778;2023-05-08T06:59:23;101677.34;;;22.18;60.21
22830;BME280;11581;51.250;6.778;2023-05-08T07:01:49;101684.56;;;22.38;59.17
22830;BME280;11581;51.250;6.778;2023-05-08T07:04:16;101681.97;;;22.58;58.32
22830;BME280;11581;51.250;6.778;2023-05-08T07:06:42;101673.00;;;22.70;57.75
22830;BME280;11581;51.250;6.778;2023-05-08T07:09:09;101679.34;;;22.84;57.30
22830;BME280;11581;51.250;6.778;2023-05-08T07:11:35;101651.06;;;22.78;56.92
22830;BME280;11581;51.250;6.778;2023-05-08T07:14:02;101678.09;;;23.06;56.76
22830;BME280;11581;51.250;6.778;2023-05-08T07:16:28;101628.06;;;22.87;56.57
22830;BME280;11581;51.250;6.778;2023-05-08T07:18:56;101686.56;;;23.43;56.79
22830;BME280;11581;51.250;6.778;2023-05-08T07:21:22;101621.22;;;23.37;57.26
22830;BME280;11581;51.250;6.778;2023-05-08T07:23:49;101597.31;;;23.71;57.82
22830;BME280;11581;51.250;6.778;2023-05-08T07:26:17;101697.34;;;24.92;57.47
22830;BME280;11581;51.250;6.778;2023-05-08T07:28:44;101687.97;;;25.68;56.02
22830;BME280;11581;51.250;6.778;2023-05-08T07:31:10;101687.16;;;26.46;52.85
22830;BME280;11581;51.250;6.778;2023-05-08T07:33:37;101688.09;;;27.17;51.53
22830;BME280;11581;51.250;6.778;2023-05-08T07:36:03;101676.22;;;27.76;50.20
22830;BME280;11581;51.250;6.778;2023-05-08T07:38:30;101667.56;;;28.42;48.80
22830;BME280;11581;51.250;6.778;2023-05-08T07:40:57;101684.94;;;29.26;48.04
22830;BME280;11581;51.250;6.778;2023-05-08T07:43:25;101673.09;;;29.92;45.78
22830;BME280;11581;51.250;6.778;2023-05-08T07:45:52;101676.22;;;30.77;44.13
22830;BME280;11581;51.250;6.778;2023-05-08T07:48:18;101696.38;;;31.62;41.97
22830;BME280;11581;51.250;6.778;2023-05-08T07:50:45;101706.75;;;32.28;40.18
22830;BME280;11581;51.250;6.778;2023-05-08T07:53:11;101661.38;;;32.61;37.99
22830;BME280;11581;51.250;6.778;2023-05-08T07:55:40;101655.44;;;33.04;36.87
22830;BME280;11581;51.250;6.778;2023-05-08T07:58:07;101675.38;;;33.56;35.89
22830;BME280;11581;51.250;6.778;2023-05-08T08:00:33;101681.47;;;33.93;35.45
22830;BME280;11581;51.250;6.778;2023-05-08T08:03:00;101663.16;;;34.12;34.69
22830;BME280;11581;51.250;6.778;2023-05-08T08:05:27;101700.31;;;34.65;34.14
22830;BME280;11581;51.250;6.778;2023-05-08T08:07:54;101661.19;;;34.81;33.35
22830;BME280;11581;51.250;6.778;2023-05-08T08:10:20;101665.38;;;35.22;32.78
22830;BME280;11581;51.250;6.778;2023-05-08T08:12:47;101696.56;;;35.76;31.22
22830;BME280;11581;51.250;6.778;2023-05-08T08:15:13;101697.53;;;35.90;30.46
22830;BME280;11581;51.250;6.778;2023-05-08T08:17:39;101667.50;;;35.69;29.56
22830;BME280;11581;51.250;6.778;2023-05-08T08:20:06;101694.41;;;35.68;29.39
22830;BME280;11581;51.250;6.778;2023-05-08T08:22:33;101678.16;;;35.18;28.77
22830;BME280;11581;51.250;6.778;2023-05-08T08:25:00;101701.69;;;34.72;29.29
22830;BME280;11581;51.250;6.778;2023-05-08T08:27:27;101706.88;;;34.10;30.05
22830;BME280;11581;51.250;6.778;2023-05-08T08:29:53;101698.34;;;33.56;30.99
22830;BME280;11581;51.250;6.778;2023-05-08T08:32:20;101660.94;;;32.94;31.67
22830;BME280;11581;51.250;6.778;2023-05-08T08:34:46;101668.59;;;32.72;32.11
22830;BME280;11581;51.250;6.778;2023-05-08T08:37:13;101649.16;;;32.47;32.55
22830;BME280;11581;51.250;6.778;2023-05-08T08:39:39;101669.31;;;32.42;32.21
22830;BME280;11581;51.250;6.778;2023-05-08T08:42:06;101680.75;;;32.19;31.85
22830;BME280;11581;51.250;6.778;2023-05-08T08:44:32;101668.63;;;31.78;32.46
22830;BME280;11581;51.250;6.778;2023-05-08T08:46:59;101648.56;;;31.20;32.45
22830;BME280;11581;51.250;6.778;2023-05-08T08:49:30;101696.28;;;30.99;32.93
22830;BME280;11581;51.250;6.778;2023-05-08T08:52:02;101605.72;;;29.89;33.56
22830;BME280;11581;51.250;6.778;2023-05-08T08:54:33;101703.94;;;29.94;34.26
22830;BME280;11581;51.250;6.778;2023-05-08T08:57:04;101611.97;;;28.86;35.08
22830;BME280;11581;51.250;6.778;2023-05-08T08:59:32;101652.72;;;28.66;35.84
22830;BME280;11581;51.250;6.778;2023-05-08T09:02:04;101705.03;;;28.59;36.41
22830;BME280;11581;51.250;6.778;2023-05-08T09:04:31;101704.47;;;28.23;36.94
22830;BME280;11581;51.250;6.778;2023-05-08T09:06:58;101707.56;;;27.91;37.43
22830;BME280;11581;51.250;6.778;2023-05-08T09:09:25;101683.09;;;27.44;38.32
22830;BME280;11581;51.250;6.778;2023-05-08T09:11:53;101681.59;;;27.18;38.87
22830;BME280;11581;51.250;6.778;2023-05-08T09:14:19;101674.22;;;26.89;39.26
22830;BME280;11581;51.250;6.778;2023-05-08T09:16:45;101699.63;;;26.78;39.53
22830;BME280;11581;51.250;6.778;2023-05-08T09:19:13;101709.69;;;26.66;39.90
22830;BME280;11581;51.250;6.778;2023-05-08T09:21:40;101705.50;;;26.46;40.53
22830;BME280;11581;51.250;6.778;2023-05-08T09:24:06;101711.25;;;26.38;40.54
22830;BME280;11581;51.250;6.778;2023-05-08T09:26:38;101717.09;;;26.23;41.12
22830;BME280;11581;51.250;6.778;2023-05-08T09:29:16;101713.06;;;26.08;41.68
22830;BME280;11581;51.250;6.778;2023-05-08T09:31:44;101715.69;;;25.96;41.75
22830;BME280;11581;51.250;6.778;2023-05-08T09:34:25;101709.94;;;25.79;42.20
22830;BME280;11581;51.250;6.778;2023-05-08T09:37:10;101715.59;;;25.60;42.36
22830;BME280;11581;51.250;6.778;2023-05-08T09:39:37;101708.72;;;25.51;42.87
22830;BME280;11581;51.250;6.778;2023-05-08T09:42:05;101661.75;;;25.11;43.07
22830;BME280;11581;51.250;6.778;2023-05-08T09:44:46;101709.88;;;25.37;43.44
22830;BME280;11581;51.250;6.778;2023-05-08T09:47:18;101713.28;;;25.26;43.10
22830;BME280;11581;51.250;6.778;2023-05-08T09:49:59;101664.00;;;24.90;43.61
22830;BME280;11581;51.250;6.778;2023-05-08T09:52:27;101655.44;;;24.80;43.79
22830;BME280;11581;51.250;6.778;2023-05-08T09:55:07;101703.41;;;25.00;44.06
22830;BME280;11581;51.250;6.778;2023-05-08T09:57:36;101691.72;;;24.80;44.27
22830;BME280;11581;51.250;6.778;2023-05-08T10:00:11;101700.13;;;24.79;44.63
22830;BME280;11581;51.250;6.778;2023-05-08T10:02:40;101715.03;;;24.83;44.23
22830;BME280;11581;51.250;6.778;2023-05-08T10:05:24;101703.31;;;24.76;44.53
22830;BME280;11581;51.250;6.778;2023-05-08T10:07:51;101697.44;;;24.72;45.04
22830;BME280;11581;51.250;6.778;2023-05-08T10:10:23;101701.25;;;24.71;45.09
22830;BME280;11581;51.250;6.778;2023-05-08T10:12:52;101634.03;;;24.39;44.97
22830;BME280;11581;51.250;6.778;2023-05-08T10:15:29;101698.47;;;24.78;45.00
22830;BME280;11581;51.250;6.778;2023-05-08T10:18:06;101681.50;;;24.76;44.64
22830;BME280;11581;51.250;6.778;2023-05-08T10:20:38;101695.06;;;24.89;44.67
22830;BME280;11581;51.250;6.778;2023-05-08T10:23:10;101680.31;;;24.96;44.09
22830;BME280;11581;51.250;6.778;2023-05-08T10:25:41;101687.63;;;25.02;44.30
22830;BME280;11581;51.250;6.778;2023-05-08T10:28:14;101693.06;;;25.02;44.00
22830;BME280;11581;51.250;6.778;2023-05-08T10:30:48;101687.84;;;25.01;44.40
22830;BME280;11581;51.250;6.778;2023-05-08T10:33:19;101640.59;;;24.76;44.93
22830;BME280;11581;51.250;6.778;2023-05-08T10:35:47;101685.44;;;25.11;45.19
22830;BME280;11581;51.250;6.778;2023-05-08T10:38:14;101635.81;;;24.96;44.56
22830;BME280;11581;51.250;6.778;2023-05-08T10:40:41;101659.91;;;25.30;44.89
22830;BME280;11581;51.250;6.778;2023-05-08T10:43:08;101680.63;;;25.68;44.46
22830;BME280;11581;51.250;6.778;2023-05-08T10:45:35;101633.53;;;25.73;43.88
22830;BME280;11581;51.250;6.778;2023-05-08T10:48:10;101668.66;;;26.30;43.33
22830;BME280;11581;51.250;6.778;2023-05-08T10:51:00;101662.13;;;26.67;43.13
22830;BME280;11581;51.250;6.778;2023-05-08T10:53:36;101658.88;;;27.00;41.28
22830;BME280;11581;51.250;6.778;2023-05-08T10:56:04;101667.44;;;27.21;41.31
22830;BME280;11581;51.250;6.778;2023-05-08T10:58:32;101674.28;;;27.42;40.37
22830;BME280;11581;51.250;6.778;2023-05-08T11:03:31;101664.16;;;27.65;39.63
22830;BME280;11581;51.250;6.778;2023-05-08T11:05:59;101662.13;;;27.72;39.77
22830;BME280;11581;51.250;6.778;2023-05-08T11:08:27;101651.44;;;27.71;39.88
22830;BME280;11581;51.250;6.778;2023-05-08T11:13:34;101603.06;;;27.99;38.84
22830;BME280;11581;51.250;6.778;2023-05-08T11:16:01;101654.84;;;28.75;39.97
22830;BME280;11581;51.250;6.778;2023-05-08T11:18:28;101652.97;;;29.37;38.85
22830;BME280;11581;51.250;6.778;2023-05-08T11:21:00;101659.28;;;30.03;38.23
22830;BME280;11581;51.250;6.778;2023-05-08T11:23:29;101641.63;;;30.64;36.38
22830;BME280;11581;51.250;6.778;2023-05-08T11:26:01;101649.44;;;31.25;34.45
22830;BME280;11581;51.250;6.778;2023-05-08T11:28:35;101638.56;;;31.77;33.45
22830;BME280;11581;51.250;6.778;2023-05-08T11:31:04;101638.34;;;32.30;33.61
22830;BME280;11581;51.250;6.778;2023-05-08T11:33:32;101635.19;;;32.78;32.81
22830;BME280;11581;51.250;6.778;2023-05-08T11:38:37;101607.09;;;33.41;31.40
22830;BME280;11581;51.250;6.778;2023-05-08T11:41:10;101642.72;;;33.88;29.47
22830;BME280;11581;51.250;6.778;2023-05-08T11:43:53;101641.00;;;34.12;30.05
22830;BME280;11581;51.250;6.778;2023-05-08T11:46:37;101635.38;;;34.32;29.25
22830;BME280;11581;51.250;6.778;2023-05-08T11:49:04;101636.44;;;34.51;29.27
22830;BME280;11581;51.250;6.778;2023-05-08T11:51:31;101629.78;;;34.47;28.65
22830;BME280;11581;51.250;6.778;2023-05-08T11:53:59;101620.19;;;34.20;28.65
22830;BME280;11581;51.250;6.778;2023-05-08T11:56:25;101630.50;;;34.09;28.81
22830;BME280;11581;51.250;6.778;2023-05-08T11:59:03;101633.31;;;33.84;28.61
22830;BME280;11581;51.250;6.778;2023-05-08T12:01:30;101576.97;;;33.20;29.05
22830;BME280;11581;51.250;6.778;2023-05-08T12:04:00;101633.59;;;33.22;28.45
22830;BME280;11581;51.250;6.778;2023-05-08T12:06:28;101636.91;;;32.89;29.43
22830;BME280;11581;51.250;6.778;2023-05-08T12:08:56;101635.97;;;32.59;29.70
22830;BME280;11581;51.250;6.778;2023-05-08T12:11:23;101612.00;;;32.07;29.91
22830;BME280;11581;51.250;6.778;2023-05-08T12:13:50;101557.50;;;31.36;30.62
22830;BME280;11581;51.250;6.778;2023-05-08T12:16:17;101635.91;;;31.50;30.89
22830;BME280;11581;51.250;6.778;2023-05-08T12:18:48;101639.72;;;31.18;30.72
22830;BME280;11581;51.250;6.778;2023-05-08T12:21:15;101590.97;;;30.65;30.98
22830;BME280;11581;51.250;6.778;2023-05-08T12:23:41;101639.19;;;30.68;31.31
22830;BME280;11581;51.250;6.778;2023-05-08T12:26:08;101633.66;;;30.41;31.66
22830;BME280;11581;51.250;6.778;2023-05-08T12:28:37;101634.41;;;30.15;32.54
22830;BME280;11581;51.250;6.778;2023-05-08T12:31:03;101644.78;;;29.91;32.80
22830;BME280;11581;51.250;6.778;2023-05-08T12:33:32;101643.00;;;29.64;32.92
22830;BME280;11581;51.250;6.778;2023-05-08T12:35:59;101646.97;;;29.40;33.56
22830;BME280;11581;51.250;6.778;2023-05-08T12:38:26;101628.44;;;29.02;33.89
22830;BME280;11581;51.250;6.778;2023-05-08T12:40:53;101639.91;;;28.83;34.38
22830;BME280;11581;51.250;6.778;2023-05-08T12:43:20;101639.78;;;28.50;34.87
22830;BME280;11581;51.250;6.778;2023-05-08T12:45:55;101622.22;;;28.11;35.56
22830;BME280;11581;51.250;6.778;2023-05-08T12:48:22;101630.25;;;27.89;36.25
22830;BME280;11581;51.250;6.778;2023-05-08T12:50:48;101575.19;;;27.33;36.51
22830;BME280;11581;51.250;6.778;2023-05-08T12:53:17;101625.78;;;27.42;37.18
22830;BME280;11581;51.250;6.778;2023-05-08T12:55:52;101599.50;;;27.00;37.86
22830;BME280;11581;51.250;6.778;2023-05-08T12:58:23;101625.81;;;27.01;38.27
22830;BME280;11581;51.250;6.778;2023-05-08T13:00:51;101651.09;;;26.85;37.92
22830;BME280;11581;51.250;6.778;2023-05-08T13:03:22;101614.69;;;26.73;38.59
22830;BME280;11581;51.250;6.778;2023-05-08T13:05:50;101613.09;;;26.66;38.71
22830;BME280;11581;51.250;6.778;2023-05-08T13:08:17;101599.53;;;26.41;38.78
22830;BME280;11581;51.250;6.778;2023-05-08T13:10:54;101612.06;;;26.49;39.26
22830;BME280;11581;51.250;6.778;2023-05-08T13:13:22;101609.84;;;26.39;38.70
22830;BME280;11581;51.250;6.778;2023-05-08T13:15:51;101602.22;;;26.30;39.10